createdAt,value
2018-12-13T00:00:30.790Z,72.47
2018-12-13T00:02:57.857Z,71.97
2018-12-13T00:05:25.095Z,72.12
2018-12-13T00:07:52.175Z,71.99
2018-12-13T00:10:19.220Z,72.92
2018-12-13T00:12:46.311Z,72.47
2018-12-13T00:15:16.033Z,72.20
2018-12-13T00:17:43.281Z,72.78
2018-12-13T00:20:10.363Z,72.13
2018-12-13T00:22:37.555Z,72.16
2018-12-13T00:25:04.681Z,71.98
2018-12-13T00:27:31.732Z,71.58
2018-12-13T00:29:59.731Z,72.24
2018-12-13T00:32:26.777Z,72.39
2018-12-13T00:34:53.883Z,71.56
2018-12-13T00:37:20.975Z,71.21
2018-12-13T00:39:48.045Z,71.18
2018-12-13T00:42:15.217Z,71.31
2018-12-13T00:44:42.336Z,71.21
2018-12-13T00:47:09.431Z,71.50
2018-12-13T00:49:36.516Z,71.71
2018-12-13T00:52:03.663Z,71.46
2018-12-13T00:54:32.065Z,71.35
2018-12-13T00:56:59.182Z,70.63
2018-12-13T00:59:26.243Z,70.39
2018-12-13T01:01:53.735Z,70.17
2018-12-13T01:04:21.770Z,70.24
2018-12-13T01:06:48.847Z,70.36
2018-12-13T01:09:15.927Z,70.72
2018-12-13T01:11:43.003Z,70.59
2018-12-13T01:14:10.089Z,70.79
2018-12-13T01:16:37.183Z,70.36
2018-12-13T01:19:04.376Z,70.32
2018-12-13T01:21:31.484Z,70.07
2018-12-13T01:23:58.618Z,70.19
2018-12-13T01:26:25.775Z,69.88
2018-12-13T01:28:52.921Z,70.26
2018-12-13T01:31:20.210Z,70.65
2018-12-13T01:33:47.345Z,70.28
2018-12-13T01:36:16.048Z,70.02
2018-12-13T01:38:43.180Z,70.31
2018-12-13T01:41:10.282Z,70.13
2018-12-13T01:43:37.353Z,70.01
2018-12-13T01:46:04.472Z,69.13
2018-12-13T01:48:31.592Z,69.78
2018-12-13T01:50:58.667Z,70.05
2018-12-13T01:53:27.204Z,70.09
2018-12-13T01:55:54.302Z,69.92
2018-12-13T01:58:21.344Z,70.54
2018-12-13T02:00:48.487Z,69.58
2018-12-13T02:03:15.680Z,69.07
2018-12-13T02:05:42.849Z,70.20
2018-12-13T02:08:09.944Z,69.78
2018-12-13T02:10:36.988Z,69.88
2018-12-13T02:13:04.155Z,70.09
2018-12-13T02:15:32.767Z,69.04
2018-12-13T02:17:59.919Z,69.19
2018-12-13T02:20:27.109Z,68.95
2018-12-13T02:22:54.216Z,68.99
2018-12-13T02:25:21.708Z,69.15
2018-12-13T02:27:48.816Z,69.48
2018-12-13T02:30:17.960Z,69.20
2018-12-13T02:32:45.150Z,69.49
2018-12-13T02:35:12.235Z,69.52
2018-12-13T02:37:39.379Z,69.78
2018-12-13T02:40:06.448Z,69.62
2018-12-13T02:42:33.600Z,69.19
2018-12-13T02:45:00.650Z,69.62
2018-12-13T02:47:27.791Z,69.77
2018-12-13T02:49:54.844Z,69.90
2018-12-13T02:52:21.899Z,70.00
2018-12-13T02:54:48.939Z,69.51
2018-12-13T02:57:16.047Z,69.64
2018-12-13T02:59:43.134Z,70.03
2018-12-13T03:02:10.200Z,69.53
2018-12-13T03:04:37.300Z,69.86
2018-12-13T03:07:04.338Z,70.47
2018-12-13T03:09:31.436Z,70.07
2018-12-13T03:11:58.631Z,69.59
2018-12-13T03:14:25.792Z,70.22
2018-12-13T03:16:53.853Z,69.81
2018-12-13T03:19:21.089Z,70.28
2018-12-13T03:21:48.156Z,70.14
2018-12-13T03:24:15.252Z,70.17
2018-12-13T03:26:42.401Z,70.34
2018-12-13T03:29:09.503Z,70.14
2018-12-13T03:31:36.672Z,70.15
2018-12-13T03:34:03.913Z,70.32
2018-12-13T03:36:31.017Z,70.27
2018-12-13T03:38:58.120Z,70.35
2018-12-13T03:41:25.327Z,70.87
2018-12-13T03:43:53.026Z,69.84
2018-12-13T03:46:20.080Z,70.56
2018-12-13T03:48:47.220Z,71.18
2018-12-13T03:51:14.327Z,70.55
2018-12-13T03:53:41.445Z,71.61
2018-12-13T03:56:08.629Z,71.49
2018-12-13T03:58:35.718Z,71.87
2018-12-13T04:01:02.849Z,71.95
2018-12-13T04:03:29.885Z,71.71
2018-12-13T04:05:56.967Z,70.95
2018-12-13T04:08:24.077Z,71.38
2018-12-13T04:10:51.193Z,71.42
2018-12-13T04:13:18.453Z,71.30
2018-12-13T04:15:46.209Z,70.61
2018-12-13T04:18:13.366Z,70.58
2018-12-13T04:20:40.591Z,70.64
2018-12-13T04:23:07.689Z,71.62
2018-12-13T04:25:34.829Z,71.36
2018-12-13T04:28:02.000Z,70.98
2018-12-13T04:30:29.073Z,70.78
2018-12-13T04:32:56.194Z,70.84
2018-12-13T04:35:23.425Z,71.10
2018-12-13T04:37:50.533Z,71.94
2018-12-13T04:40:17.698Z,71.46
2018-12-13T04:42:44.842Z,71.82
2018-12-13T04:45:11.906Z,71.21
2018-12-13T04:47:39.893Z,71.76
2018-12-13T04:50:06.992Z,71.73
2018-12-13T04:52:34.181Z,71.59
2018-12-13T04:55:01.331Z,72.32
2018-12-13T04:57:28.488Z,72.40
2018-12-13T04:59:55.626Z,71.98
2018-12-13T05:02:22.731Z,71.56
2018-12-13T05:04:49.897Z,72.15
2018-12-13T05:07:17.034Z,71.86
2018-12-13T05:09:44.157Z,72.12
2018-12-13T05:12:11.339Z,72.26
2018-12-13T05:14:38.433Z,73.08
2018-12-13T05:17:05.540Z,72.90
2018-12-13T05:19:32.632Z,72.02
2018-12-13T05:21:59.775Z,73.02
2018-12-13T05:24:26.831Z,71.80
2018-12-13T05:26:53.891Z,71.88
2018-12-13T05:29:20.946Z,71.38
2018-12-13T05:31:48.843Z,72.36
2018-12-13T05:34:15.937Z,72.16
2018-12-13T05:36:43.159Z,71.58
2018-12-13T05:39:10.245Z,72.09
2018-12-13T05:41:37.336Z,71.43
2018-12-13T05:49:03.716Z,72.40
2018-12-13T05:51:30.952Z,72.44
2018-12-13T05:53:58.099Z,73.09
2018-12-13T05:56:25.247Z,71.98
2018-12-13T05:58:52.319Z,72.03
2018-12-13T06:01:19.416Z,72.50
2018-12-13T06:03:46.486Z,72.54
2018-12-13T06:06:13.606Z,72.73
2018-12-13T06:08:40.679Z,72.08
2018-12-13T06:11:07.697Z,72.15
2018-12-13T06:13:34.784Z,72.60
2018-12-13T06:16:01.875Z,72.91
2018-12-13T06:18:28.954Z,72.37
2018-12-13T06:20:56.026Z,72.58
2018-12-13T06:23:23.123Z,73.11
2018-12-13T06:25:50.582Z,73.29
2018-12-13T06:28:17.857Z,72.83
2018-12-13T06:30:45.107Z,72.75
2018-12-13T06:33:12.273Z,72.80
2018-12-13T06:35:39.491Z,73.26
2018-12-13T06:38:06.793Z,72.81
2018-12-13T06:40:34.018Z,72.95
2018-12-13T06:43:01.132Z,72.37
2018-12-13T06:45:28.247Z,72.37
2018-12-13T06:47:55.287Z,73.06
2018-12-13T06:50:22.396Z,72.80
2018-12-13T06:52:49.573Z,72.88
2018-12-13T06:55:16.739Z,72.02
2018-12-13T06:57:43.868Z,72.39
2018-12-13T07:00:11.020Z,72.55
2018-12-13T07:02:38.150Z,72.66
2018-12-13T07:05:05.447Z,73.61
2018-12-13T07:07:32.851Z,73.20
2018-12-13T07:09:59.939Z,72.79
2018-12-13T07:12:27.660Z,72.93
2018-12-13T07:14:54.951Z,73.07
2018-12-13T07:17:22.020Z,73.16
2018-12-13T07:19:49.304Z,73.46
2018-12-13T07:22:16.420Z,72.54
2018-12-13T07:24:43.498Z,72.61
2018-12-13T07:27:10.563Z,72.57
2018-12-13T07:29:37.696Z,72.88
2018-12-13T07:32:05.403Z,73.11
2018-12-13T07:34:32.664Z,72.44
2018-12-13T07:36:59.879Z,73.11
2018-12-13T07:39:27.215Z,72.39
2018-12-13T07:41:54.329Z,73.00
2018-12-13T07:44:21.377Z,73.14
2018-12-13T07:46:48.544Z,73.59
2018-12-13T07:49:15.777Z,73.36
2018-12-13T07:51:42.871Z,73.54
2018-12-13T07:54:09.953Z,73.45
2018-12-13T07:56:37.137Z,73.64
2018-12-13T07:59:04.322Z,72.73
2018-12-13T08:01:32.602Z,73.08
2018-12-13T08:03:59.943Z,73.09
2018-12-13T08:06:27.066Z,72.85
2018-12-13T08:08:54.260Z,73.53
2018-12-13T08:11:21.414Z,72.63
2018-12-13T08:13:48.619Z,72.77
2018-12-13T08:16:15.799Z,73.36
2018-12-13T08:18:43.006Z,73.47
2018-12-13T08:21:10.116Z,72.80
2018-12-13T08:23:37.472Z,73.92
2018-12-13T08:26:04.612Z,73.51
2018-12-13T08:28:31.789Z,73.92
2018-12-13T08:30:59.001Z,73.91
2018-12-13T08:33:26.401Z,73.67
2018-12-13T08:35:53.988Z,73.49
2018-12-13T08:38:27.052Z,73.40
2018-12-13T08:40:50.359Z,73.62
2018-12-13T08:43:17.451Z,73.51
2018-12-13T08:45:44.524Z,73.11
2018-12-13T08:48:12.369Z,73.22
2018-12-13T08:50:39.555Z,73.52
2018-12-13T08:53:06.714Z,72.25
2018-12-13T08:55:33.904Z,73.38
2018-12-13T08:58:01.716Z,72.78
2018-12-13T09:00:28.895Z,72.76
2018-12-13T09:02:56.659Z,72.42
2018-12-13T09:05:23.733Z,72.22
2018-12-13T09:07:50.810Z,71.73
2018-12-13T09:10:18.055Z,71.92
2018-12-13T09:12:45.282Z,71.57
2018-12-13T09:15:12.411Z,71.38
2018-12-13T09:17:39.499Z,71.15
2018-12-13T09:20:06.687Z,71.00
2018-12-13T09:22:33.762Z,70.51
2018-12-13T09:25:02.447Z,70.81
2018-12-13T09:27:29.617Z,69.88
2018-12-13T09:29:56.897Z,70.27
2018-12-13T09:32:24.035Z,69.78
2018-12-13T09:34:52.136Z,69.38
2018-12-13T09:37:19.281Z,70.12
2018-12-13T09:39:46.466Z,70.23
2018-12-13T09:42:13.543Z,69.78
2018-12-13T09:44:40.748Z,70.08
2018-12-13T09:47:07.831Z,69.23
2018-12-13T09:49:34.880Z,69.12
2018-12-13T09:52:02.014Z,69.10
2018-12-13T09:54:30.127Z,69.13
2018-12-13T09:56:57.302Z,68.53
2018-12-13T09:59:25.133Z,67.36
2018-12-13T10:01:52.308Z,68.21
2018-12-13T10:04:19.508Z,67.60
2018-12-13T10:06:46.767Z,67.74
2018-12-13T10:09:13.939Z,67.46
2018-12-13T10:11:42.173Z,67.03
2018-12-13T10:14:09.822Z,67.11
2018-12-13T10:16:37.712Z,67.45
2018-12-13T10:19:05.832Z,66.83
2018-12-13T10:21:32.981Z,67.09
2018-12-13T10:24:01.413Z,66.52
2018-12-13T10:26:29.293Z,66.01
2018-12-13T10:28:57.307Z,65.83
2018-12-13T10:31:24.499Z,66.33
2018-12-13T10:33:51.744Z,65.29
2018-12-13T10:36:19.238Z,65.39
2018-12-13T10:38:52.800Z,64.78
2018-12-13T10:41:15.545Z,65.65
2018-12-13T10:43:42.699Z,65.14
2018-12-13T10:46:09.822Z,64.97
2018-12-13T10:48:37.226Z,65.31
2018-12-13T10:51:04.420Z,66.23
2018-12-13T10:53:31.540Z,65.42
2018-12-13T10:55:59.693Z,66.11
2018-12-13T10:58:27.775Z,65.14
2018-12-13T11:01:00.468Z,65.14
2018-12-13T11:03:34.106Z,64.70
2018-12-13T11:06:01.257Z,64.61
2018-12-13T11:08:28.496Z,65.45
2018-12-13T11:10:55.604Z,65.07
2018-12-13T11:13:22.715Z,65.28
2018-12-13T11:15:50.568Z,65.11
2018-12-13T11:18:17.712Z,65.19
2018-12-13T11:20:44.965Z,65.11
2018-12-13T11:23:12.876Z,65.27
2018-12-13T11:25:39.975Z,65.34
2018-12-13T11:30:21.764Z,65.72
2018-12-13T11:32:49.344Z,65.35
2018-12-13T11:35:16.508Z,65.46
2018-12-13T11:37:43.918Z,64.78
2018-12-13T11:40:11.152Z,65.01
2018-12-13T11:42:38.399Z,65.67
2018-12-13T11:45:05.953Z,65.15
2018-12-13T11:47:33.110Z,65.61
2018-12-13T11:50:00.263Z,65.46
2018-12-13T11:52:27.331Z,65.95
2018-12-13T11:54:55.161Z,66.06
2018-12-13T11:57:22.388Z,65.75
2018-12-13T11:59:50.649Z,65.30
2018-12-13T12:02:23.830Z,64.84
2018-12-13T12:04:47.008Z,65.16
2018-12-13T12:07:14.338Z,65.11
2018-12-13T12:09:41.443Z,64.93
2018-12-13T12:12:08.936Z,65.12
2018-12-13T12:14:36.165Z,65.03
2018-12-13T12:17:03.315Z,64.06
2018-12-13T12:19:31.196Z,64.20
2018-12-13T12:21:58.504Z,63.77
2018-12-13T12:24:26.007Z,64.35
2018-12-13T12:26:56.080Z,64.53
2018-12-13T12:29:23.387Z,64.06
2018-12-13T12:31:51.015Z,63.28
2018-12-13T12:34:18.465Z,63.44
2018-12-13T12:36:45.679Z,64.04
2018-12-13T12:39:18.391Z,64.16
2018-12-13T12:41:43.314Z,63.97
2018-12-13T12:44:11.163Z,63.89
2018-12-13T12:46:38.291Z,63.43
2018-12-13T12:49:05.475Z,63.05
2018-12-13T12:51:32.536Z,63.27
2018-12-13T12:53:59.723Z,63.38
2018-12-13T12:56:26.919Z,63.78
2018-12-13T12:58:54.071Z,63.69
2018-12-13T13:01:21.425Z,63.57
2018-12-13T13:03:49.450Z,63.24
2018-12-13T13:06:16.672Z,62.96
2018-12-13T13:08:43.852Z,63.35
2018-12-13T13:11:11.073Z,62.51
2018-12-13T13:13:38.297Z,62.74
2018-12-13T13:16:05.953Z,62.50
2018-12-13T13:18:39.055Z,60.28
2018-12-13T13:21:03.379Z,60.55
2018-12-13T13:23:30.506Z,60.88
2018-12-13T13:25:57.768Z,61.44
2018-12-13T13:28:24.900Z,59.20
2018-12-13T13:30:52.061Z,58.58
2018-12-13T13:33:19.324Z,58.76
2018-12-13T13:35:46.702Z,59.05
2018-12-13T13:38:14.026Z,59.23
2018-12-13T13:40:41.359Z,59.55
2018-12-13T13:43:08.528Z,59.42
2018-12-13T13:45:35.889Z,59.57
2018-12-13T13:48:03.020Z,59.00
2018-12-13T13:50:30.149Z,59.72
2018-12-13T13:52:57.257Z,59.79
2018-12-13T13:55:24.490Z,60.47
2018-12-13T13:57:52.131Z,60.17
2018-12-13T14:00:19.398Z,60.27
2018-12-13T14:02:46.633Z,59.54
2018-12-13T14:05:14.688Z,59.76
2018-12-13T14:07:41.808Z,60.26
2018-12-13T14:10:08.944Z,60.56
2018-12-13T14:12:36.096Z,59.97
2018-12-13T14:15:05.476Z,59.85
2018-12-13T14:17:32.549Z,59.90
2018-12-13T14:20:01.688Z,59.93
2018-12-13T14:22:28.784Z,59.46
2018-12-13T14:24:56.005Z,60.03
2018-12-13T14:27:23.291Z,60.33
2018-12-13T14:29:50.392Z,59.88
2018-12-13T14:32:18.165Z,59.88
2018-12-13T14:34:45.407Z,60.75
2018-12-13T14:37:12.620Z,60.75
2018-12-13T14:39:44.445Z,60.49
2018-12-13T14:42:09.025Z,60.06
2018-12-13T14:44:36.136Z,60.75
2018-12-13T14:47:03.611Z,60.46
2018-12-13T14:49:30.884Z,60.12
2018-12-13T14:51:58.436Z,60.54
2018-12-13T14:54:25.682Z,60.68
2018-12-13T14:56:53.055Z,60.97
2018-12-13T14:59:20.212Z,60.09
2018-12-13T15:01:47.795Z,60.81
2018-12-13T15:04:15.826Z,61.29
2018-12-13T15:06:42.965Z,60.75
2018-12-13T15:09:10.271Z,60.12
2018-12-13T15:11:37.994Z,60.40
2018-12-13T15:14:05.209Z,61.05
2018-12-13T15:16:34.439Z,60.69
2018-12-13T15:19:01.739Z,60.34
2018-12-13T15:21:30.074Z,60.39
2018-12-13T15:23:57.235Z,60.86
2018-12-13T15:26:24.544Z,61.09
2018-12-13T15:28:52.811Z,60.95
2018-12-13T15:31:20.603Z,61.00
2018-12-13T15:33:47.772Z,61.43
2018-12-13T15:36:15.613Z,61.01
2018-12-13T15:38:42.799Z,60.15
2018-12-13T15:41:10.104Z,60.48
2018-12-13T15:43:37.273Z,61.11
2018-12-13T15:46:05.119Z,60.90
2018-12-13T15:48:32.279Z,60.97
2018-12-13T15:50:59.435Z,61.00
2018-12-13T15:53:27.100Z,60.84
2018-12-13T15:55:54.292Z,61.11
2018-12-13T15:58:21.463Z,60.52
2018-12-13T16:00:48.675Z,61.07
2018-12-13T16:03:15.908Z,60.55
2018-12-13T16:05:43.979Z,60.77
2018-12-13T16:08:11.246Z,60.78
2018-12-13T16:10:38.479Z,60.59
2018-12-13T16:13:06.016Z,60.98
2018-12-13T16:15:33.189Z,60.72
2018-12-13T16:18:00.388Z,61.44
2018-12-13T16:20:27.767Z,61.16
2018-12-13T16:22:55.690Z,60.50
2018-12-13T16:25:22.834Z,61.23
2018-12-13T16:27:49.902Z,60.66
2018-12-13T16:30:18.207Z,61.38
2018-12-13T16:32:45.452Z,60.70
2018-12-13T16:35:13.541Z,61.49
2018-12-13T16:37:40.845Z,61.34
2018-12-13T16:40:10.496Z,60.46
2018-12-13T16:42:37.305Z,59.90
2018-12-13T16:45:04.870Z,60.23
2018-12-13T16:47:31.969Z,60.23
2018-12-13T16:49:59.177Z,60.72
2018-12-13T16:52:27.060Z,61.25
2018-12-13T16:54:54.204Z,60.79
2018-12-13T16:57:21.909Z,60.52
2018-12-13T16:59:49.054Z,59.97
2018-12-13T17:02:16.276Z,60.19
2018-12-13T17:04:43.556Z,59.84
2018-12-13T17:07:11.112Z,59.70
2018-12-13T17:09:38.344Z,59.70
2018-12-13T17:12:05.604Z,59.64
2018-12-13T17:14:32.816Z,60.11
2018-12-13T17:17:00.005Z,60.18
2018-12-13T17:19:27.135Z,59.36
2018-12-13T17:21:54.277Z,59.44
2018-12-13T17:24:22.316Z,59.39
2018-12-13T17:26:49.566Z,58.40
2018-12-13T17:29:16.690Z,58.55
2018-12-13T17:31:45.974Z,59.37
2018-12-13T17:34:13.330Z,59.33
2018-12-13T17:36:41.785Z,59.06
2018-12-13T17:39:10.516Z,58.85
2018-12-13T17:41:39.292Z,58.87
2018-12-13T17:44:08.096Z,59.25
2018-12-13T17:46:35.857Z,58.65
2018-12-13T17:49:04.323Z,58.74
2018-12-13T17:51:33.578Z,58.84
2018-12-13T17:54:02.400Z,58.99
2018-12-13T17:56:30.142Z,59.33
2018-12-13T17:58:57.687Z,59.43
2018-12-13T18:01:26.064Z,59.46
2018-12-13T18:03:53.855Z,58.45
2018-12-13T18:06:21.572Z,58.72
2018-12-13T18:08:50.287Z,59.12
2018-12-13T18:11:18.853Z,58.99
2018-12-13T18:13:47.104Z,58.99
2018-12-13T18:16:15.280Z,58.35
2018-12-13T18:18:42.854Z,58.52
2018-12-13T18:21:10.085Z,58.49
2018-12-13T18:23:37.161Z,58.50
2018-12-13T18:26:04.210Z,58.64
2018-12-13T18:28:31.312Z,59.12
2018-12-13T18:30:58.412Z,58.00
2018-12-13T18:33:25.528Z,58.35
2018-12-13T18:35:52.662Z,58.42
2018-12-13T18:38:19.966Z,58.83
2018-12-13T18:40:47.033Z,58.41
2018-12-13T18:43:14.052Z,57.82
2018-12-13T18:45:41.161Z,57.60
2018-12-13T18:48:08.305Z,57.03
2018-12-13T18:50:35.492Z,57.32
2018-12-13T18:53:02.727Z,58.12
2018-12-13T18:55:30.043Z,58.17
2018-12-13T18:57:57.133Z,58.37
2018-12-13T19:00:24.348Z,58.66
2018-12-13T19:02:51.532Z,58.59
2018-12-13T19:05:18.781Z,58.56
2018-12-13T19:07:45.930Z,59.21
2018-12-13T19:10:13.080Z,58.53
2018-12-13T19:12:41.399Z,58.75
2018-12-13T19:15:08.616Z,58.63
2018-12-13T19:17:35.861Z,58.63
2018-12-13T19:20:05.261Z,58.06
2018-12-13T19:22:32.494Z,58.42
2018-12-13T19:24:59.639Z,57.83
2018-12-13T19:27:27.024Z,58.38
2018-12-13T19:29:54.134Z,58.55
2018-12-13T19:32:21.292Z,58.05
2018-12-13T19:34:49.256Z,58.15
2018-12-13T19:37:16.495Z,58.36
2018-12-13T19:39:43.644Z,58.16
2018-12-13T19:42:10.819Z,57.90
2018-12-13T19:44:39.779Z,57.37
2018-12-13T19:47:07.191Z,57.84
2018-12-13T19:49:34.368Z,57.57
2018-12-13T19:52:01.453Z,57.27
2018-12-13T19:54:28.629Z,57.40
2018-12-13T19:56:55.805Z,56.96
2018-12-13T19:59:22.927Z,57.17
2018-12-13T20:01:50.069Z,56.97
2018-12-13T20:04:17.170Z,58.10
2018-12-13T20:06:44.366Z,58.56
2018-12-13T20:09:12.190Z,58.58
2018-12-13T20:11:39.324Z,58.11
2018-12-13T20:14:06.555Z,58.24
2018-12-13T20:16:33.661Z,58.49
2018-12-13T20:19:01.608Z,58.32
2018-12-13T20:21:28.873Z,57.75
2018-12-13T20:23:56.139Z,58.19
2018-12-13T20:26:23.244Z,58.62
2018-12-13T20:28:50.573Z,59.22
2018-12-13T20:31:17.933Z,58.81
2018-12-13T20:33:45.205Z,59.16
2018-12-13T20:36:12.345Z,58.71
2018-12-13T20:38:40.268Z,58.49
2018-12-13T20:41:07.450Z,58.17
2018-12-13T20:43:35.294Z,58.96
2018-12-13T20:48:44.779Z,58.13
2018-12-13T20:51:17.307Z,58.63
2018-12-13T20:53:44.971Z,57.82
2018-12-13T20:56:12.093Z,58.54
2018-12-13T20:58:39.389Z,57.98
2018-12-13T21:01:06.512Z,57.90
2018-12-13T21:03:33.724Z,58.10
2018-12-13T21:06:00.926Z,58.84
2018-12-13T21:08:28.651Z,58.89
2018-12-13T21:10:55.879Z,58.23
2018-12-13T21:13:23.044Z,58.04
2018-12-13T21:15:50.383Z,58.40
2018-12-13T21:18:17.535Z,57.91
2018-12-13T21:20:44.925Z,58.99
2018-12-13T21:23:12.232Z,57.63
2018-12-13T21:25:39.325Z,58.02
2018-12-13T21:28:06.555Z,58.20
2018-12-13T21:30:33.698Z,58.37
2018-12-13T21:33:00.796Z,57.90
2018-12-13T21:35:28.151Z,58.48
2018-12-13T21:37:55.337Z,58.50
2018-12-13T21:40:22.443Z,58.56
2018-12-13T21:42:49.646Z,58.32
2018-12-13T21:45:16.969Z,57.84
2018-12-13T21:47:44.133Z,58.65
2018-12-13T21:50:11.264Z,57.91
2018-12-13T21:52:38.417Z,58.49
2018-12-13T21:55:05.505Z,58.62
2018-12-13T21:57:33.306Z,58.89
2018-12-13T22:00:00.523Z,59.41
2018-12-13T22:02:27.625Z,59.19
2018-12-13T22:04:54.709Z,59.30
2018-12-13T22:07:21.818Z,59.46
2018-12-13T22:09:48.872Z,59.10
2018-12-13T22:12:16.011Z,59.02
2018-12-13T22:14:43.107Z,57.96
2018-12-13T22:17:10.306Z,57.67
2018-12-13T22:19:37.384Z,57.89
2018-12-13T22:22:04.552Z,58.20
2018-12-13T22:24:32.058Z,58.58
2018-12-13T22:26:59.141Z,57.86
2018-12-13T22:29:26.328Z,57.44
2018-12-13T22:31:53.765Z,57.98
2018-12-13T22:34:21.058Z,56.98
2018-12-13T22:36:48.560Z,58.09
2018-12-13T22:39:16.169Z,58.11
2018-12-13T22:41:43.315Z,57.99
2018-12-13T22:44:10.421Z,58.80
2018-12-13T22:46:38.175Z,58.07
2018-12-13T22:49:05.324Z,58.79
2018-12-13T22:51:32.485Z,57.98
2018-12-13T22:53:59.572Z,57.72
2018-12-13T22:56:26.733Z,57.57
2018-12-13T22:58:53.910Z,57.34
2018-12-13T23:01:21.152Z,57.60
2018-12-13T23:03:48.488Z,57.98
2018-12-13T23:06:15.605Z,57.46
2018-12-13T23:08:43.676Z,56.98
2018-12-13T23:11:11.287Z,57.12
2018-12-13T23:13:38.409Z,56.79
2018-12-13T23:16:05.572Z,56.92
2018-12-13T23:18:33.204Z,56.58
2018-12-13T23:21:00.275Z,57.00
2018-12-13T23:23:27.464Z,56.90
2018-12-13T23:25:54.769Z,57.12
2018-12-13T23:28:21.827Z,57.33
2018-12-13T23:30:49.581Z,57.75
2018-12-13T23:33:16.883Z,57.72
2018-12-13T23:35:44.000Z,57.47
2018-12-13T23:38:11.859Z,58.05
2018-12-13T23:40:38.978Z,57.93
2018-12-13T23:43:06.213Z,57.78
2018-12-13T23:45:33.380Z,57.72
2018-12-13T23:48:00.500Z,56.74
2018-12-13T23:50:27.584Z,57.01
2018-12-13T23:52:54.731Z,56.63
2018-12-13T23:55:22.562Z,57.07
2018-12-13T23:57:49.642Z,57.19
